createdAt,value
2019-03-26T00:01:00.527Z,4.83
2019-03-26T00:03:31.853Z,4.03
2019-03-26T00:06:02.710Z,6.70
2019-03-26T00:08:33.101Z,3.90
2019-03-26T00:11:02.461Z,5.17
2019-03-26T00:13:35.995Z,6.30
2019-03-26T00:16:05.366Z,5.67
2019-03-26T00:18:34.724Z,6.50
2019-03-26T00:21:05.585Z,5.80
2019-03-26T00:23:35.952Z,5.57
2019-03-26T00:26:06.466Z,6.27
2019-03-26T00:28:36.862Z,8.43
2019-03-26T00:31:08.484Z,6.53
2019-03-26T00:33:37.925Z,5.53
2019-03-26T00:36:08.294Z,5.67
2019-03-26T00:38:37.766Z,7.13
2019-03-26T00:41:08.265Z,5.33
2019-03-26T00:43:38.665Z,5.50
2019-03-26T00:46:09.933Z,5.10
2019-03-26T00:48:40.236Z,3.17
2019-03-26T00:51:09.817Z,3.10
2019-03-26T00:53:40.293Z,4.57
2019-03-26T00:56:09.799Z,4.43
2019-03-26T00:58:40.269Z,6.13
2019-03-26T01:01:11.957Z,8.47
2019-03-26T01:03:42.434Z,13.23
2019-03-26T01:06:12.850Z,13.23
2019-03-26T01:08:43.258Z,13.80
2019-03-26T01:11:15.632Z,9.17
2019-03-26T01:13:46.041Z,8.37
2019-03-26T01:16:18.028Z,6.50
2019-03-26T01:18:46.860Z,3.97
2019-03-26T01:21:16.225Z,6.37
2019-03-26T01:23:46.574Z,7.47
2019-03-26T01:26:16.945Z,7.63
2019-03-26T01:28:46.291Z,5.47
2019-03-26T01:31:16.687Z,4.70
2019-03-26T01:33:46.990Z,8.20
2019-03-26T01:36:16.393Z,4.47
2019-03-26T01:38:47.983Z,6.60
2019-03-26T01:41:16.740Z,11.10
2019-03-26T01:43:48.142Z,5.50
2019-03-26T01:46:17.600Z,6.83
2019-03-26T01:48:48.163Z,4.33
2019-03-26T01:51:18.543Z,5.33
2019-03-26T01:53:48.847Z,4.83
2019-03-26T01:56:18.349Z,4.30
2019-03-26T01:58:48.753Z,7.47
2019-03-26T02:01:19.159Z,6.33
2019-03-26T02:03:50.638Z,7.43
2019-03-26T02:06:20.075Z,11.47
2019-03-26T02:08:50.477Z,9.20
2019-03-26T02:11:19.874Z,9.43
2019-03-26T02:13:50.227Z,13.83
2019-03-26T02:16:20.640Z,11.07
2019-03-26T02:18:51.058Z,6.20
2019-03-26T02:21:22.320Z,9.77
2019-03-26T02:23:51.704Z,8.53
2019-03-26T02:26:22.094Z,12.77
2019-03-26T02:28:52.463Z,7.63
2019-03-26T02:31:21.871Z,9.23
2019-03-26T02:33:53.448Z,8.37
2019-03-26T02:36:27.021Z,9.07
2019-03-26T02:38:56.424Z,10.63
2019-03-26T02:41:26.919Z,9.03
2019-03-26T02:43:55.731Z,11.83
2019-03-26T02:46:26.994Z,9.57
2019-03-26T02:48:56.484Z,9.77
2019-03-26T02:51:27.184Z,10.03
2019-03-26T02:53:57.772Z,9.50
2019-03-26T02:56:28.381Z,10.47
2019-03-26T02:59:01.822Z,9.73
2019-03-26T03:01:31.306Z,13.17
2019-03-26T03:04:03.346Z,9.57
2019-03-26T03:06:33.764Z,9.93
2019-03-26T03:09:05.795Z,12.67
2019-03-26T03:11:36.168Z,11.03
2019-03-26T03:14:06.654Z,9.93
2019-03-26T03:16:36.021Z,9.53
2019-03-26T03:19:06.450Z,12.00
2019-03-26T03:21:36.935Z,9.70
2019-03-26T03:24:06.337Z,10.53
2019-03-26T03:26:35.800Z,12.63
2019-03-26T03:29:05.223Z,11.40
2019-03-26T03:31:35.643Z,11.73
2019-03-26T03:34:06.286Z,12.23
2019-03-26T03:36:35.666Z,11.67
2019-03-26T03:39:08.533Z,11.27
2019-03-26T03:41:37.995Z,12.50
2019-03-26T03:44:08.385Z,9.83
2019-03-26T03:46:37.996Z,12.47
2019-03-26T03:49:08.482Z,9.40
2019-03-26T03:51:40.912Z,11.93
2019-03-26T03:54:12.831Z,12.70
2019-03-26T03:56:43.935Z,10.63
2019-03-26T03:59:13.684Z,9.00
2019-03-26T04:01:45.588Z,10.60
2019-03-26T04:04:16.022Z,9.10
2019-03-26T04:06:46.674Z,11.10
2019-03-26T04:09:16.946Z,11.40
2019-03-26T04:11:46.335Z,9.60
2019-03-26T04:14:20.052Z,10.33
2019-03-26T04:16:49.303Z,10.33
2019-03-26T04:19:18.707Z,12.10
2019-03-26T04:21:48.024Z,10.83
2019-03-26T04:24:19.886Z,10.07
2019-03-26T04:26:48.724Z,9.73
2019-03-26T04:29:18.248Z,9.60
2019-03-26T04:31:47.698Z,12.63
2019-03-26T04:34:18.083Z,13.03
2019-03-26T04:36:47.598Z,10.43
2019-03-26T04:39:17.003Z,12.80
2019-03-26T04:41:46.405Z,10.90
2019-03-26T04:44:18.744Z,10.53
2019-03-26T04:46:48.119Z,9.90
2019-03-26T04:49:18.456Z,11.43
2019-03-26T04:51:49.020Z,13.10
2019-03-26T04:54:19.373Z,11.33
2019-03-26T04:56:49.544Z,12.40
2019-03-26T04:59:20.029Z,13.30
2019-03-26T05:01:50.418Z,12.70
2019-03-26T05:04:20.883Z,16.67
2019-03-26T05:06:51.313Z,14.70
2019-03-26T05:09:22.898Z,14.97
2019-03-26T05:11:53.261Z,12.53
2019-03-26T05:14:24.553Z,16.70
2019-03-26T05:16:54.994Z,14.00
2019-03-26T05:19:25.361Z,11.40
2019-03-26T05:21:55.558Z,15.07
2019-03-26T05:24:24.919Z,14.53
2019-03-26T05:26:55.281Z,13.87
2019-03-26T05:29:25.626Z,14.33
2019-03-26T05:31:56.032Z,14.23
2019-03-26T05:34:25.442Z,14.73
2019-03-26T05:36:55.909Z,13.20
2019-03-26T05:39:25.325Z,14.93
2019-03-26T05:41:54.737Z,13.67
2019-03-26T05:44:24.217Z,14.23
2019-03-26T05:46:53.610Z,16.37
2019-03-26T05:49:23.983Z,15.47
2019-03-26T05:51:54.518Z,14.10
2019-03-26T05:54:24.887Z,14.63
2019-03-26T05:56:55.250Z,16.63
2019-03-26T05:59:24.795Z,14.00
2019-03-26T06:01:55.487Z,15.00
2019-03-26T06:04:24.933Z,14.07
2019-03-26T06:07:04.743Z,16.67
2019-03-26T06:09:27.762Z,14.37
2019-03-26T06:11:56.464Z,14.60
2019-03-26T06:14:26.993Z,13.57
2019-03-26T06:16:56.336Z,13.70
2019-03-26T06:19:28.828Z,14.60
2019-03-26T06:21:59.247Z,15.43
2019-03-26T06:24:29.599Z,13.77
2019-03-26T06:26:59.861Z,14.50
2019-03-26T06:29:32.841Z,13.83
2019-03-26T06:32:03.258Z,14.17
2019-03-26T06:34:33.732Z,14.00
2019-03-26T06:37:17.100Z,14.63
2019-03-26T06:39:36.471Z,12.93
2019-03-26T06:42:06.908Z,14.00
2019-03-26T06:44:36.400Z,14.17
2019-03-26T06:47:06.868Z,12.40
2019-03-26T06:49:36.242Z,16.43
2019-03-26T06:52:07.386Z,13.63
2019-03-26T06:54:36.917Z,14.53
2019-03-26T06:57:07.568Z,13.63
2019-03-26T06:59:37.044Z,14.40
2019-03-26T07:02:07.600Z,14.93
2019-03-26T07:04:39.688Z,14.77
2019-03-26T07:07:10.232Z,16.20
2019-03-26T07:09:40.710Z,18.37
2019-03-26T07:12:11.104Z,17.60
2019-03-26T07:14:40.513Z,15.10
2019-03-26T07:17:12.854Z,17.63
2019-03-26T07:19:42.365Z,15.17
2019-03-26T07:22:11.202Z,17.10
2019-03-26T07:24:43.656Z,19.30
2019-03-26T07:27:13.055Z,16.10
2019-03-26T07:29:43.641Z,17.07
2019-03-26T07:32:14.138Z,17.27
2019-03-26T07:34:44.545Z,18.00
2019-03-26T07:37:14.950Z,15.40
2019-03-26T07:39:45.477Z,16.80
2019-03-26T07:42:15.856Z,17.43
2019-03-26T07:44:45.642Z,15.23
2019-03-26T07:47:18.034Z,19.77
2019-03-26T07:49:49.589Z,18.90
2019-03-26T07:52:18.956Z,17.80
2019-03-26T07:54:49.330Z,15.67
2019-03-26T07:57:19.937Z,15.43
2019-03-26T07:59:50.223Z,16.67
2019-03-26T08:02:19.631Z,15.23
2019-03-26T08:04:49.041Z,17.37
2019-03-26T08:07:21.385Z,18.47
2019-03-26T08:09:51.796Z,15.73
2019-03-26T08:12:23.433Z,17.13
2019-03-26T08:14:53.867Z,16.87
2019-03-26T08:17:24.206Z,14.97
2019-03-26T08:19:54.527Z,15.73
2019-03-26T08:22:23.931Z,15.70
2019-03-26T08:24:54.326Z,16.60
2019-03-26T08:27:24.731Z,21.23
2019-03-26T08:29:54.250Z,15.53
2019-03-26T08:32:24.719Z,19.47
2019-03-26T08:34:54.106Z,19.13
2019-03-26T08:37:24.474Z,15.43
2019-03-26T08:39:55.087Z,17.37
2019-03-26T08:42:24.600Z,15.30
2019-03-26T08:44:54.066Z,15.27
2019-03-26T08:47:23.711Z,17.53
2019-03-26T08:49:54.420Z,16.03
2019-03-26T08:52:25.184Z,13.90
2019-03-26T08:54:57.734Z,14.70
2019-03-26T08:57:28.119Z,16.17
2019-03-26T08:59:58.574Z,15.83
2019-03-26T09:02:27.952Z,13.50
2019-03-26T09:04:58.947Z,15.10
2019-03-26T09:07:28.468Z,19.53
2019-03-26T09:09:58.886Z,15.93
2019-03-26T09:12:28.271Z,13.57
2019-03-26T09:14:57.183Z,12.80
2019-03-26T09:17:27.536Z,12.40
2019-03-26T09:19:57.876Z,14.03
2019-03-26T09:22:31.252Z,11.77
2019-03-26T09:25:00.730Z,12.30
2019-03-26T09:27:31.121Z,12.97
2019-03-26T09:30:01.539Z,24.40
2019-03-26T09:32:31.923Z,10.17
2019-03-26T09:35:03.663Z,8.03
2019-03-26T09:37:33.158Z,6.80
2019-03-26T09:40:03.600Z,7.33
2019-03-26T09:42:34.076Z,8.23
2019-03-26T09:45:05.994Z,9.37
2019-03-26T09:47:35.980Z,7.07
2019-03-26T09:50:10.744Z,5.73
2019-03-26T09:52:41.465Z,5.83
2019-03-26T09:55:12.946Z,3.50
2019-03-26T09:57:43.413Z,2.67
2019-03-26T10:00:16.629Z,2.90
2019-03-26T10:02:46.035Z,3.80
2019-03-26T10:05:15.781Z,4.30
2019-03-26T10:07:45.171Z,3.67
2019-03-26T10:10:16.462Z,4.67
2019-03-26T10:12:45.937Z,3.97
2019-03-26T10:15:15.420Z,3.30
2019-03-26T10:17:47.473Z,3.07
2019-03-26T10:20:19.376Z,5.07
2019-03-26T10:22:48.196Z,5.07
2019-03-26T10:25:18.625Z,2.63
2019-03-26T10:27:48.002Z,4.63
2019-03-26T10:30:20.177Z,3.97
2019-03-26T10:32:50.751Z,2.23
2019-03-26T10:35:20.163Z,2.07
2019-03-26T10:37:50.635Z,3.63
2019-03-26T10:40:32.204Z,3.20
2019-03-26T10:43:02.240Z,3.47
2019-03-26T10:45:32.881Z,8.40
2019-03-26T10:48:02.317Z,6.17
2019-03-26T10:50:30.787Z,7.50
2019-03-26T10:52:59.352Z,4.83
2019-03-26T10:55:29.832Z,7.20
2019-03-26T10:58:03.058Z,4.63
2019-03-26T11:00:32.548Z,4.63
2019-03-26T11:03:03.034Z,7.10
2019-03-26T11:05:33.356Z,6.50
2019-03-26T11:08:05.543Z,3.27
2019-03-26T11:10:36.024Z,4.60
2019-03-26T11:13:05.643Z,4.03
2019-03-26T11:15:35.117Z,5.47
2019-03-26T11:18:03.701Z,5.63
2019-03-26T11:20:33.097Z,4.20
2019-03-26T11:23:01.596Z,4.23
2019-03-26T11:25:31.990Z,7.50
2019-03-26T11:28:01.430Z,5.00
2019-03-26T11:30:31.959Z,6.60
2019-03-26T11:33:02.364Z,5.17
2019-03-26T11:35:31.775Z,4.97
2019-03-26T11:38:02.445Z,5.63
2019-03-26T11:40:32.953Z,5.63
2019-03-26T11:43:03.348Z,7.23
2019-03-26T11:45:32.722Z,5.20
2019-03-26T11:48:03.139Z,5.97
2019-03-26T11:50:32.603Z,7.20
2019-03-26T11:53:02.960Z,2.87
2019-03-26T11:55:35.283Z,2.70
2019-03-26T11:58:05.651Z,5.37
2019-03-26T12:00:40.900Z,4.33
2019-03-26T12:03:11.360Z,4.17
2019-03-26T12:05:41.709Z,5.77
2019-03-26T12:08:12.113Z,4.63
2019-03-26T12:10:42.668Z,5.07
2019-03-26T12:13:12.138Z,4.70
2019-03-26T12:15:41.466Z,4.93
2019-03-26T12:18:13.213Z,4.20
2019-03-26T12:20:45.604Z,7.13
2019-03-26T12:23:17.647Z,8.47
2019-03-26T12:25:47.095Z,5.63
2019-03-26T12:28:17.675Z,4.47
2019-03-26T12:30:47.078Z,7.50
2019-03-26T12:33:17.841Z,5.23
2019-03-26T12:35:47.251Z,6.90
2019-03-26T12:38:19.501Z,5.47
2019-03-26T12:40:48.314Z,7.07
2019-03-26T12:43:18.957Z,5.23
2019-03-26T12:45:48.522Z,5.20
2019-03-26T12:48:19.439Z,5.03
2019-03-26T12:50:51.252Z,8.17
2019-03-26T12:53:20.040Z,6.53
2019-03-26T12:55:49.521Z,5.63
2019-03-26T12:58:30.982Z,6.70
2019-03-26T13:00:53.054Z,7.47
2019-03-26T13:03:21.545Z,4.97
2019-03-26T13:05:51.962Z,6.30
2019-03-26T13:08:23.827Z,5.83
2019-03-26T13:10:54.312Z,6.60
2019-03-26T13:13:26.316Z,7.60
2019-03-26T13:15:57.466Z,6.07
2019-03-26T13:18:26.956Z,6.90
2019-03-26T13:20:57.552Z,5.53
2019-03-26T13:23:27.889Z,5.70
2019-03-26T13:25:58.248Z,10.40
2019-03-26T13:28:27.719Z,6.97
2019-03-26T13:30:58.109Z,6.00
2019-03-26T13:33:28.436Z,6.30
2019-03-26T13:35:57.815Z,7.80
2019-03-26T13:38:27.141Z,7.87
2019-03-26T13:40:56.606Z,6.43
2019-03-26T13:43:26.005Z,8.97
2019-03-26T13:45:56.361Z,10.80
2019-03-26T13:48:26.706Z,7.47
2019-03-26T13:50:58.320Z,6.83
2019-03-26T13:53:27.689Z,7.10
2019-03-26T13:55:58.063Z,6.90
2019-03-26T13:58:27.563Z,7.17
2019-03-26T14:00:57.980Z,5.07
2019-03-26T14:03:28.274Z,6.37
2019-03-26T14:05:58.674Z,7.53
2019-03-26T14:08:29.006Z,11.77
2019-03-26T14:10:59.387Z,6.67
2019-03-26T14:13:28.780Z,6.70
2019-03-26T14:15:59.278Z,7.50
2019-03-26T14:18:29.749Z,6.93
2019-03-26T14:21:00.111Z,5.27
2019-03-26T14:23:30.385Z,4.93
2019-03-26T14:25:59.764Z,6.73
2019-03-26T14:28:30.703Z,6.40
2019-03-26T14:31:01.155Z,6.57
2019-03-26T14:33:33.545Z,4.77
2019-03-26T14:36:04.054Z,6.23
2019-03-26T14:38:37.909Z,4.90
2019-03-26T14:41:08.426Z,5.80
2019-03-26T14:43:38.833Z,6.67
2019-03-26T14:46:09.835Z,6.67
2019-03-26T14:48:42.244Z,8.17
2019-03-26T14:51:11.646Z,8.27
2019-03-26T14:53:41.016Z,5.33
2019-03-26T14:56:11.729Z,8.17
2019-03-26T14:58:42.100Z,9.40
2019-03-26T15:01:12.602Z,7.87
2019-03-26T15:03:43.247Z,6.53
2019-03-26T15:06:13.619Z,8.77
2019-03-26T15:08:44.153Z,6.97
2019-03-26T15:11:13.643Z,10.53
2019-03-26T15:13:44.002Z,6.40
2019-03-26T15:16:16.498Z,6.13
2019-03-26T15:18:48.267Z,8.53
2019-03-26T15:21:17.680Z,8.67
2019-03-26T15:23:48.021Z,7.93
2019-03-26T15:26:17.394Z,8.77
2019-03-26T15:28:46.806Z,9.00
2019-03-26T15:31:17.301Z,7.43
2019-03-26T15:33:46.667Z,5.53
2019-03-26T15:36:17.233Z,8.50
2019-03-26T15:38:46.596Z,6.63
2019-03-26T15:41:21.816Z,6.73
2019-03-26T15:43:48.141Z,8.40
2019-03-26T15:46:16.631Z,8.20
2019-03-26T15:48:46.146Z,6.27
2019-03-26T15:51:14.615Z,6.07
2019-03-26T15:53:43.143Z,5.03
2019-03-26T15:56:12.582Z,7.43
2019-03-26T15:58:42.962Z,5.07
2019-03-26T16:01:13.359Z,6.20
2019-03-26T16:03:42.779Z,6.50
2019-03-26T16:06:11.253Z,6.53
2019-03-26T16:08:41.450Z,6.17
2019-03-26T16:11:10.846Z,7.43
2019-03-26T16:13:40.270Z,6.37
2019-03-26T16:16:09.668Z,7.47
2019-03-26T16:18:38.996Z,6.73
2019-03-26T16:21:08.446Z,4.47
2019-03-26T16:23:37.870Z,4.67
2019-03-26T16:26:07.178Z,3.17
2019-03-26T16:28:37.329Z,5.60
2019-03-26T16:31:06.741Z,4.57
2019-03-26T16:33:39.122Z,5.13
2019-03-26T16:36:08.534Z,4.67
2019-03-26T16:38:38.780Z,5.23
2019-03-26T16:41:09.311Z,6.63
2019-03-26T16:43:41.472Z,2.57
2019-03-26T16:46:11.823Z,3.13
2019-03-26T16:48:44.264Z,5.07
2019-03-26T16:51:14.636Z,5.67
2019-03-26T16:53:47.060Z,5.20
2019-03-26T16:56:16.474Z,5.50
2019-03-26T16:58:50.065Z,5.80
2019-03-26T17:01:20.427Z,5.60
2019-03-26T17:03:52.398Z,5.33
2019-03-26T17:06:22.733Z,7.87
2019-03-26T17:08:54.672Z,3.53
2019-03-26T17:11:27.219Z,6.07
2019-03-26T17:13:57.724Z,6.20
2019-03-26T17:16:28.131Z,6.53
2019-03-26T17:19:00.411Z,8.10
2019-03-26T17:21:30.767Z,7.30
2019-03-26T17:24:00.177Z,6.67
2019-03-26T17:26:30.587Z,10.10
2019-03-26T17:29:01.008Z,8.83
2019-03-26T17:31:31.340Z,8.73
2019-03-26T17:34:01.806Z,8.37
2019-03-26T17:36:31.399Z,7.43
2019-03-26T17:39:02.864Z,6.73
2019-03-26T17:41:34.963Z,7.10
2019-03-26T17:44:04.412Z,8.30
2019-03-26T17:46:34.733Z,9.77
2019-03-26T17:49:04.246Z,9.43
2019-03-26T17:51:34.746Z,8.43
2019-03-26T17:54:04.221Z,6.50
2019-03-26T17:56:34.830Z,5.40
2019-03-26T17:59:05.243Z,10.67
2019-03-26T18:01:36.058Z,7.17
2019-03-26T18:04:08.650Z,8.10
2019-03-26T18:06:39.117Z,7.40
2019-03-26T18:09:12.075Z,7.07
2019-03-26T18:11:42.541Z,13.20
2019-03-26T18:14:13.010Z,10.63
2019-03-26T18:16:42.501Z,8.93
2019-03-26T18:20:00.402Z,9.23
2019-03-26T18:22:33.745Z,7.77
2019-03-26T18:25:04.222Z,6.57
2019-03-26T18:27:35.790Z,14.43
2019-03-26T18:30:06.174Z,10.90
2019-03-26T18:32:38.553Z,7.00
2019-03-26T18:35:09.265Z,7.40
2019-03-26T18:37:40.236Z,6.03
2019-03-26T18:40:11.063Z,9.40
2019-03-26T18:42:44.198Z,11.60
2019-03-26T18:45:13.749Z,9.57
2019-03-26T18:47:44.140Z,8.57
2019-03-26T18:50:16.324Z,11.57
2019-03-26T18:52:48.189Z,11.60
2019-03-26T18:55:20.792Z,14.73
2019-03-26T18:57:52.624Z,7.87
2019-03-26T19:00:36.499Z,11.87
2019-03-26T19:03:07.721Z,10.83
2019-03-26T19:05:37.276Z,23.37
2019-03-26T19:08:06.934Z,17.63
2019-03-26T19:10:38.460Z,16.70
2019-03-26T19:13:19.235Z,13.20
2019-03-26T19:15:42.848Z,13.07
2019-03-26T19:18:13.672Z,13.47
2019-03-26T19:20:43.170Z,11.03
2019-03-26T19:23:13.761Z,12.30
2019-03-26T19:25:44.352Z,13.07
2019-03-26T19:28:14.885Z,10.67
2019-03-26T19:30:44.268Z,12.70
2019-03-26T19:33:13.695Z,12.40
2019-03-26T19:35:43.163Z,11.07
2019-03-26T19:38:13.559Z,17.10
2019-03-26T19:40:44.079Z,16.73
2019-03-26T19:43:13.482Z,14.07
2019-03-26T19:45:43.841Z,12.53
2019-03-26T19:48:14.242Z,11.00
2019-03-26T19:50:44.784Z,13.13
2019-03-26T19:53:14.237Z,12.60
2019-03-26T19:55:45.670Z,14.70
2019-03-26T19:58:16.698Z,15.47
2019-03-26T20:00:48.819Z,14.70
2019-03-26T20:03:19.287Z,18.30
2019-03-26T20:05:49.690Z,11.83
2019-03-26T20:08:20.059Z,13.00
2019-03-26T20:10:50.416Z,15.27
2019-03-26T20:13:24.656Z,15.23
2019-03-26T20:15:55.284Z,17.73
2019-03-26T20:18:28.405Z,14.73
2019-03-26T20:20:58.738Z,13.37
2019-03-26T20:23:29.038Z,13.53
2019-03-26T20:26:00.780Z,14.73
2019-03-26T20:28:31.153Z,13.80
2019-03-26T20:31:00.590Z,12.93
2019-03-26T20:33:30.016Z,15.97
2019-03-26T20:36:00.498Z,18.40
2019-03-26T20:38:31.048Z,14.63
2019-03-26T20:41:01.550Z,17.57
2019-03-26T20:43:37.179Z,14.97
2019-03-26T20:46:01.548Z,14.17
2019-03-26T20:48:30.980Z,14.00
2019-03-26T20:51:01.330Z,13.27
2019-03-26T20:53:30.855Z,13.63
2019-03-26T20:56:00.204Z,15.47
2019-03-26T20:58:28.793Z,20.23
2019-03-26T21:00:59.155Z,18.07
2019-03-26T21:03:28.549Z,13.97
2019-03-26T21:05:59.405Z,14.83
2019-03-26T21:08:28.903Z,14.93
2019-03-26T21:10:58.297Z,19.67
2019-03-26T21:13:28.769Z,17.30
2019-03-26T21:16:00.367Z,18.20
2019-03-26T21:18:29.235Z,13.93
2019-03-26T21:20:58.740Z,12.37
2019-03-26T21:23:30.513Z,13.27
2019-03-26T21:25:59.857Z,15.40
2019-03-26T21:28:31.820Z,18.87
2019-03-26T21:31:01.227Z,14.70
2019-03-26T21:33:30.646Z,17.03
2019-03-26T21:36:01.077Z,15.57
2019-03-26T21:38:31.574Z,14.60
2019-03-26T21:41:01.940Z,16.17
2019-03-26T21:43:33.396Z,14.93
2019-03-26T21:46:02.896Z,19.13
2019-03-26T21:48:33.330Z,15.77
2019-03-26T21:51:03.719Z,18.97
2019-03-26T21:53:35.701Z,20.67
2019-03-26T21:56:07.338Z,15.07
2019-03-26T21:58:37.652Z,22.07
2019-03-26T22:01:09.360Z,13.50
2019-03-26T22:03:38.761Z,13.87
2019-03-26T22:06:09.104Z,14.70
2019-03-26T22:08:39.503Z,17.10
2019-03-26T22:11:11.846Z,13.77
2019-03-26T22:13:42.190Z,12.57
2019-03-26T22:16:11.619Z,19.73
2019-03-26T22:18:42.123Z,17.13
2019-03-26T22:21:11.600Z,17.20
2019-03-26T22:23:43.040Z,19.17
2019-03-26T22:26:13.229Z,20.13
2019-03-26T22:28:45.836Z,18.27
2019-03-26T22:31:15.235Z,16.20
2019-03-26T22:33:45.615Z,15.10
2019-03-26T22:36:16.167Z,19.43
2019-03-26T22:38:46.624Z,15.07
2019-03-26T22:41:16.038Z,20.33
2019-03-26T22:43:47.603Z,22.00
2019-03-26T22:46:17.061Z,19.43
2019-03-26T22:48:47.617Z,24.50
2019-03-26T22:51:19.950Z,19.60
2019-03-26T22:53:52.400Z,19.87
2019-03-26T22:56:22.831Z,20.97
2019-03-26T22:58:54.885Z,24.07
2019-03-26T23:01:25.558Z,24.37
2019-03-26T23:03:56.003Z,22.37
2019-03-26T23:06:26.580Z,21.30
2019-03-26T23:08:57.025Z,20.57
2019-03-26T23:11:26.429Z,24.77
2019-03-26T23:13:55.861Z,25.27
2019-03-26T23:16:25.361Z,31.53
2019-03-26T23:18:55.730Z,21.00
2019-03-26T23:21:26.129Z,23.73
2019-03-26T23:23:54.910Z,30.93
2019-03-26T23:26:25.371Z,25.17
2019-03-26T23:28:55.855Z,27.67
2019-03-26T23:31:26.393Z,26.07
2019-03-26T23:33:56.902Z,27.07
2019-03-26T23:36:29.232Z,28.23
2019-03-26T23:39:01.575Z,29.20
2019-03-26T23:41:30.981Z,30.07
2019-03-26T23:44:00.463Z,34.80
2019-03-26T23:46:30.863Z,23.90
2019-03-26T23:49:02.694Z,29.90
2019-03-26T23:51:34.324Z,28.43
2019-03-26T23:54:03.704Z,26.50
2019-03-26T23:56:34.066Z,24.97
2019-03-26T23:59:03.475Z,26.80
